Time;durP1;ratioP1;P1;durP2;ratioP2;P2;SDS_P1;SDS_P2;PMS_P1;PMS_P2;Temp;Humidity;BMP_temperature;BMP_pressure;BME280_temperature;BME280_humidity;BME280_pressure;Samples;Min_cycle;Max_cycle;Signal;HPM_P1;HPM_P2
2023/03/09 00:00:58;;;;;;;18.55;14.43;;;;;;;1.83;100.00;98092.72;5087507;28;20435;-79
2023/03/09 00:03:24;;;;;;;17.88;13.77;;;;;;;1.81;100.00;98089.44;5075258;28;20044;-78
2023/03/09 00:06:09;;;;;;;19.45;13.40;;;;;;;1.82;100.00;98091.91;5097162;28;20380;-79
2023/03/09 00:08:34;;;;;;;19.05;12.20;;;;;;;1.79;100.00;98093.97;5090697;28;20039;-79
2023/03/09 00:11:03;;;;;;;22.75;13.32;;;;;;;1.75;100.00;98090.03;5092250;28;20028;-79
2023/03/09 00:13:29;;;;;;;17.20;12.88;;;;;;;1.75;100.00;98098.69;5091441;28;20032;-78
2023/03/09 00:15:54;;;;;;;22.63;12.70;;;;;;;1.73;100.00;98106.63;5092977;28;20040;-79
2023/03/09 00:18:21;;;;;;;15.88;10.50;;;;;;;1.71;100.00;98105.94;5092751;28;20385;-79
2023/03/09 00:20:48;;;;;;;15.55;11.43;;;;;;;1.72;100.00;98104.19;5084930;28;20525;-78
2023/03/09 00:23:17;;;;;;;15.90;12.38;;;;;;;1.70;100.00;98104.31;5092197;28;20119;-79
2023/03/09 00:25:44;;;;;;;18.25;12.50;;;;;;;1.77;100.00;98099.31;5090534;28;20043;-79
2023/03/09 00:28:10;;;;;;;25.02;13.35;;;;;;;1.73;100.00;98100.59;5089790;28;20032;-79
2023/03/09 00:30:37;;;;;;;21.88;13.80;;;;;;;1.75;100.00;98095.25;5091139;28;20158;-79
2023/03/09 00:33:03;;;;;;;18.50;12.32;;;;;;;1.77;100.00;98095.94;5088045;28;20106;-79
2023/03/09 00:35:29;;;;;;;17.55;12.48;;;;;;;1.80;100.00;98093.81;5091132;28;20036;-79
2023/03/09 00:37:55;;;;;;;17.98;12.65;;;;;;;1.80;100.00;98082.59;5087592;28;20039;-79
2023/03/09 00:40:22;;;;;;;20.08;12.50;;;;;;;1.79;100.00;98088.75;5088183;28;20039;-79
2023/03/09 00:42:48;;;;;;;20.80;12.90;;;;;;;1.80;100.00;98086.00;5088344;28;20113;-79
2023/03/09 00:45:15;;;;;;;19.13;13.13;;;;;;;1.80;100.00;98080.81;5085031;28;20492;-79
2023/03/09 00:47:41;;;;;;;22.38;13.32;;;;;;;1.83;100.00;98071.91;5068747;28;20492;-79
2023/03/09 00:50:08;;;;;;;20.88;13.60;;;;;;;1.86;100.00;98067.19;5069410;28;20043;-79
2023/03/09 00:52:34;;;;;;;17.60;12.65;;;;;;;1.84;100.00;98068.31;5096790;28;20435;-79
2023/03/09 00:55:00;;;;;;;17.52;12.00;;;;;;;1.82;100.00;98071.06;5088148;28;20042;-79
2023/03/09 00:57:26;;;;;;;19.88;13.15;;;;;;;1.86;100.00;98069.00;5074438;28;20104;-79
2023/03/09 00:59:53;;;;;;;23.10;12.05;;;;;;;1.87;100.00;98073.22;5075100;28;20032;-79
2023/03/09 01:02:21;;;;;;;25.10;13.65;;;;;;;1.85;100.00;98072.53;5081256;28;20093;-79
2023/03/09 01:04:48;;;;;;;29.30;13.82;;;;;;;1.83;100.00;98069.28;5084802;28;20040;-78
2023/03/09 01:07:14;;;;;;;19.13;12.73;;;;;;;1.82;100.00;98076.28;5087575;28;20032;-79
2023/03/09 01:09:40;;;;;;;20.45;13.55;;;;;;;1.81;100.00;98076.41;5086991;28;20108;-79
2023/03/09 01:12:08;;;;;;;21.83;14.10;;;;;;;1.84;100.00;98081.34;5087589;28;20020;-79
2023/03/09 01:14:35;;;;;;;19.42;13.07;;;;;;;1.89;100.00;98083.50;5087043;28;20036;-79
2023/03/09 01:17:01;;;;;;;26.80;14.82;;;;;;;1.89;100.00;98092.16;5083008;28;20054;-79
2023/03/09 01:19:28;;;;;;;21.60;13.73;;;;;;;1.89;100.00;98089.53;5088365;28;20027;-78
2023/03/09 01:21:54;;;;;;;22.20;13.38;;;;;;;1.92;100.00;98098.84;5069008;28;20504;-79
2023/03/09 01:24:21;;;;;;;24.85;14.55;;;;;;;1.97;100.00;98101.81;5071483;28;20036;-79
2023/03/09 01:26:47;;;;;;;18.58;13.68;;;;;;;1.96;100.00;98101.00;5083331;28;20036;-79
2023/03/09 01:29:13;;;;;;;23.50;14.60;;;;;;;1.95;100.00;98095.94;5085529;28;20821;-79
2023/03/09 01:31:39;;;;;;;21.70;14.48;;;;;;;1.96;100.00;98093.19;5093869;28;20100;-78
2023/03/09 01:34:05;;;;;;;25.95;15.38;;;;;;;2.01;100.00;98087.53;5088046;28;20092;-79
2023/03/09 01:36:31;;;;;;;25.55;15.13;;;;;;;2.06;100.00;98093.13;5073940;28;20040;-79
2023/03/09 01:38:58;;;;;;;26.05;14.73;;;;;;;2.04;100.00;98086.44;5086846;28;20054;-79
2023/03/09 01:41:25;;;;;;;25.33;13.82;;;;;;;2.04;100.00;98087.22;5067883;28;20031;-78
2023/03/09 01:43:52;;;;;;;22.13;13.20;;;;;;;2.03;100.00;98077.78;5087904;28;20438;-79
2023/03/09 01:46:30;;;;;;;18.63;12.02;;;;;;;2.04;100.00;98073.41;5084689;28;20105;-79
2023/03/09 01:49:07;;;;;;;21.83;13.52;;;;;;;2.06;100.00;98061.03;5081936;28;20038;-79
2023/03/09 01:51:42;;;;;;;24.67;14.77;;;;;;;2.02;100.00;98062.31;5066409;28;20020;-79
2023/03/09 01:54:12;;;;;;;18.90;12.80;;;;;;;2.02;100.00;98060.53;5087862;28;20042;-78
2023/03/09 01:56:40;;;;;;;22.45;13.90;;;;;;;1.97;100.00;98066.19;5083840;28;20035;-79
2023/03/09 01:59:09;;;;;;;18.38;11.20;;;;;;;1.97;100.00;98060.97;5062984;28;20116;-79
2023/03/09 02:01:36;;;;;;;22.92;13.65;;;;;;;1.97;100.00;98065.34;5066630;28;20412;-79
2023/03/09 02:04:10;;;;;;;21.92;12.93;;;;;;;2.00;100.00;98067.66;5085848;28;20040;-79
2023/03/09 02:06:36;;;;;;;22.95;13.88;;;;;;;1.99;100.00;98071.25;5083982;28;20063;-78
2023/03/09 02:09:11;;;;;;;23.02;13.88;;;;;;;2.02;100.00;98062.31;5087973;28;20036;-79
2023/03/09 02:11:38;;;;;;;20.65;13.55;;;;;;;2.03;100.00;98054.34;5085503;28;20467;-79
2023/03/09 02:14:04;;;;;;;20.52;14.15;;;;;;;2.04;100.00;98039.53;5079939;28;20059;-79
2023/03/09 02:16:32;;;;;;;23.90;14.13;;;;;;;2.05;100.00;98042.00;5087741;28;20035;-79
2023/03/09 02:18:57;;;;;;;23.05;14.65;;;;;;;2.06;100.00;98043.63;5089275;28;20028;-79
2023/03/09 02:21:54;;;;;;;19.92;12.85;;;;;;;2.08;100.00;98048.69;5078062;28;20036;-78
2023/03/09 02:24:35;;;;;;;;;;;;;;;1.97;100.00;98041.91;5067361;28;20453;-79
2023/03/09 02:27:18;;;;;;;22.48;13.27;;;;;;;1.99;100.00;98042.59;5063380;28;19916;-79
2023/03/09 02:29:44;;;;;;;18.30;11.95;;;;;;;1.95;100.00;98034.25;5049093;28;20047;-79
2023/03/09 02:32:11;;;;;;;19.77;12.00;;;;;;;1.94;100.00;98024.75;5079541;28;20032;-78
2023/03/09 02:34:38;;;;;;;20.17;12.43;;;;;;;1.93;100.00;98032.72;5060585;28;20032;-78
2023/03/09 02:37:21;;;;;;;19.75;11.25;;;;;;;1.92;100.00;98031.09;5064583;28;20400;-79
2023/03/09 02:39:49;;;;;;;18.08;11.27;;;;;;;1.91;100.00;98032.09;5060548;28;20063;-78
2023/03/09 02:42:17;;;;;;;16.55;10.73;;;;;;;1.92;100.00;98037.13;5069403;28;20123;-78
2023/03/09 02:44:44;;;;;;;19.50;11.50;;;;;;;1.90;100.00;98036.47;5082112;28;20085;-78
2023/03/09 02:47:17;;;;;;;19.05;10.45;;;;;;;1.86;100.00;98037.75;5086742;28;20063;-78
2023/03/09 02:49:43;;;;;;;20.02;10.90;;;;;;;1.83;100.00;98030.22;5068736;28;20047;-78
2023/03/09 02:52:10;;;;;;;14.70;9.85;;;;;;;1.83;100.00;98023.19;5063631;28;20595;-78
2023/03/09 02:54:36;;;;;;;15.73;9.98;;;;;;;1.81;100.00;98025.16;5090182;28;20040;-78
2023/03/09 02:57:02;;;;;;;15.98;9.93;;;;;;;1.78;100.00;98024.63;5082103;28;20032;-78
2023/03/09 02:59:28;;;;;;;13.48;8.73;;;;;;;1.75;100.00;98009.28;5086664;28;20067;-78
2023/03/09 03:01:54;;;;;;;15.93;11.18;;;;;;;1.74;100.00;98005.84;5069544;28;20056;-78
2023/03/09 03:04:21;;;;;;;15.02;10.43;;;;;;;1.73;100.00;98004.22;5074822;28;20056;-78
2023/03/09 03:06:47;;;;;;;11.90;8.18;;;;;;;1.71;100.00;98004.38;5094639;28;20035;-77
2023/03/09 03:09:15;;;;;;;19.08;9.75;;;;;;;1.69;100.00;98008.13;5092648;28;20032;-78
2023/03/09 03:11:40;;;;;;;15.30;9.98;;;;;;;1.67;100.00;97991.81;5090351;28;20078;-78
2023/03/09 03:14:06;;;;;;;15.50;9.43;;;;;;;1.62;100.00;97997.47;5090470;28;20032;-78
2023/03/09 03:16:35;;;;;;;16.75;9.48;;;;;;;1.60;100.00;97996.78;5089737;28;20032;-78
2023/03/09 03:19:01;;;;;;;13.93;9.98;;;;;;;1.56;100.00;97998.84;5089437;28;20112;-78
2023/03/09 03:21:31;;;;;;;15.57;8.60;;;;;;;1.55;100.00;97986.81;5072608;28;20038;-78
2023/03/09 03:23:57;;;;;;;14.60;10.20;;;;;;;1.47;100.00;97991.91;5090397;28;20073;-78
2023/03/09 03:26:26;;;;;;;19.08;10.45;;;;;;;1.50;100.00;97983.81;5083391;28;20093;-78
2023/03/09 03:28:54;;;;;;;17.55;9.30;;;;;;;1.46;100.00;97990.28;5089207;28;20039;-78
2023/03/09 03:31:25;;;;;;;14.35;7.35;;;;;;;1.34;100.00;97987.06;5078927;28;20092;-78
2023/03/09 03:33:52;;;;;;;11.30;7.35;;;;;;;1.33;100.00;97986.25;5092175;28;20097;-78
2023/03/09 03:36:18;;;;;;;16.23;9.00;;;;;;;1.36;100.00;97988.56;5090321;28;20055;-78
2023/03/09 03:38:46;;;;;;;17.45;10.23;;;;;;;1.34;100.00;97969.66;5084453;28;20033;-79
2023/03/09 03:41:12;;;;;;;13.27;8.38;;;;;;;1.33;100.00;97970.66;5089842;28;20043;-78
2023/03/09 03:43:40;;;;;;;13.82;8.27;;;;;;;1.31;100.00;97969.13;5080067;28;20109;-78
2023/03/09 03:46:06;;;;;;;14.23;10.18;;;;;;;1.27;100.00;97963.44;5087316;28;20036;-78
2023/03/09 03:48:32;;;;;;;10.88;7.50;;;;;;;1.25;100.00;97965.34;5086566;28;20097;-78
2023/03/09 03:50:58;;;;;;;13.68;8.45;;;;;;;1.16;100.00;97956.66;5075006;28;20024;-79
2023/03/09 03:53:24;;;;;;;16.73;9.77;;;;;;;1.14;100.00;97958.56;5089308;28;20035;-78
2023/03/09 03:55:52;;;;;;;13.65;8.77;;;;;;;1.15;100.00;97954.97;5075171;28;20040;-78
2023/03/09 03:58:18;;;;;;;15.60;9.00;;;;;;;1.14;100.00;97945.56;5090228;28;20039;-77
2023/03/09 04:00:44;;;;;;;15.32;10.10;;;;;;;1.09;100.00;97940.78;5091040;28;20039;-78
2023/03/09 04:03:13;;;;;;;16.42;10.20;;;;;;;1.06;100.00;97937.66;5068280;28;20046;-79
2023/03/09 04:05:43;;;;;;;13.85;9.70;;;;;;;1.02;100.00;97933.72;5091477;28;20036;-79
2023/03/09 04:08:10;;;;;;;18.85;11.55;;;;;;;1.00;100.00;97939.06;5083452;28;20048;-79
2023/03/09 04:10:40;;;;;;;18.77;11.52;;;;;;;1.08;100.00;97940.94;5090040;28;20050;-79
2023/03/09 04:13:08;;;;;;;17.75;11.05;;;;;;;0.96;100.00;97935.94;5085603;28;20032;-79
2023/03/09 04:15:34;;;;;;;15.73;11.25;;;;;;;1.00;100.00;97931.25;5072052;28;20031;-79
2023/03/09 04:18:03;;;;;;;19.35;12.27;;;;;;;1.01;100.00;97930.28;5087136;28;20593;-79
2023/03/09 04:20:31;;;;;;;18.52;13.05;;;;;;;0.99;100.00;97927.00;5070777;28;20079;-79
2023/03/09 04:22:58;;;;;;;20.63;13.10;;;;;;;0.99;100.00;97921.78;5074132;28;20455;-79
2023/03/09 04:25:26;;;;;;;18.30;13.43;;;;;;;0.99;100.00;97921.78;5073908;28;20036;-78
2023/03/09 04:27:52;;;;;;;18.13;12.20;;;;;;;0.97;100.00;97923.75;5072067;28;20032;-79
2023/03/09 04:30:32;;;;;;;21.02;12.43;;;;;;;0.87;100.00;97923.78;5075599;28;20093;-79
2023/03/09 04:33:00;;;;;;;20.67;12.80;;;;;;;0.84;100.00;97919.72;5099536;28;20123;-79
2023/03/09 04:35:27;;;;;;;21.88;13.63;;;;;;;0.85;100.00;97915.31;5082921;28;20036;-79
2023/03/09 04:37:56;;;;;;;16.50;11.48;;;;;;;0.86;100.00;97922.97;5089351;28;20114;-79
2023/03/09 04:40:22;;;;;;;20.48;13.80;;;;;;;0.84;100.00;97922.31;5090115;28;20028;-79
2023/03/09 04:42:51;;;;;;;24.17;13.23;;;;;;;0.87;100.00;97921.19;5089356;28;20043;-78
2023/03/09 04:45:17;;;;;;;19.23;12.75;;;;;;;0.88;100.00;97922.81;5090642;28;20040;-77
2023/03/09 04:47:44;;;;;;;17.55;12.13;;;;;;;0.85;100.00;97921.34;5082582;28;20093;-79
2023/03/09 04:50:11;;;;;;;19.20;12.43;;;;;;;0.82;100.00;97911.22;5068552;28;20097;-79
2023/03/09 04:52:44;;;;;;;19.58;12.70;;;;;;;0.86;100.00;97904.75;5088617;28;20573;-79
2023/03/09 04:55:10;;;;;;;17.90;11.02;;;;;;;0.82;100.00;97907.78;5089370;28;20126;-78
2023/03/09 04:57:36;;;;;;;15.98;11.48;;;;;;;0.84;100.00;97914.50;5089961;28;20044;-79
2023/03/09 05:00:04;;;;;;;18.23;12.55;;;;;;;0.83;100.00;97910.25;5087884;28;20399;-79
2023/03/09 05:02:30;;;;;;;15.23;11.13;;;;;;;0.81;100.00;97908.75;5085069;28;20493;-79
2023/03/09 05:04:56;;;;;;;19.13;11.77;;;;;;;0.73;100.00;97915.50;5072713;28;20118;-79
2023/03/09 05:07:22;;;;;;;19.40;10.95;;;;;;;0.71;100.00;97908.81;5072774;28;20407;-79
2023/03/09 05:09:48;;;;;;;13.57;9.55;;;;;;;0.66;100.00;97916.22;5085375;28;20118;-79
2023/03/09 05:12:14;;;;;;;17.42;11.90;;;;;;;0.56;100.00;97914.47;5087454;28;20110;-79
2023/03/09 05:14:41;;;;;;;17.77;11.15;;;;;;;0.52;100.00;97910.53;5076028;28;20036;-79
2023/03/09 05:17:08;;;;;;;14.70;10.55;;;;;;;0.51;100.00;97901.06;5055913;28;20032;-77
2023/03/09 05:19:37;;;;;;;17.10;11.93;;;;;;;0.49;100.00;97905.63;5090087;28;20035;-77
2023/03/09 05:22:04;;;;;;;15.55;10.13;;;;;;;0.47;100.00;97902.34;5090380;28;20095;-77
2023/03/09 05:24:31;;;;;;;15.35;10.52;;;;;;;0.43;100.00;97899.19;5090512;28;20104;-77
2023/03/09 05:26:57;;;;;;;13.80;8.52;;;;;;;0.42;100.00;97894.13;5074322;28;20484;-79
2023/03/09 05:29:26;;;;;;;15.27;10.85;;;;;;;0.37;100.00;97894.56;5073444;28;20036;-79
2023/03/09 05:31:52;;;;;;;16.25;10.20;;;;;;;0.38;100.00;97891.03;5090086;28;20028;-79
2023/03/09 05:34:18;;;;;;;15.43;10.73;;;;;;;0.39;100.00;97886.63;5084696;28;20032;-79
2023/03/09 05:36:44;;;;;;;14.43;10.25;;;;;;;0.38;100.00;97880.63;5073920;28;20081;-79
2023/03/09 05:39:18;;;;;;;9.88;6.95;;;;;;;0.38;100.00;97880.63;5090061;28;20040;-79
2023/03/09 05:41:44;;;;;;;15.00;10.02;;;;;;;0.31;100.00;97875.19;5090397;28;20484;-79
2023/03/09 05:44:19;;;;;;;14.57;10.63;;;;;;;0.32;100.00;97879.41;5087524;28;20039;-78
2023/03/09 05:46:44;;;;;;;13.65;9.63;;;;;;;0.34;100.00;97874.91;5090394;28;20036;-77
2023/03/09 05:49:11;;;;;;;15.43;9.07;;;;;;;0.33;100.00;97873.25;5060156;28;20035;-77
2023/03/09 05:51:37;;;;;;;8.13;5.90;;;;;;;0.30;100.00;97878.75;5070630;28;20048;-79
2023/03/09 05:54:03;;;;;;;11.48;8.13;;;;;;;0.32;100.00;97881.19;5088301;28;20032;-79
2023/03/09 05:56:32;;;;;;;6.57;5.13;;;;;;;0.30;100.00;97876.16;5072614;28;20162;-79
2023/03/09 05:59:02;;;;;;;11.45;8.60;;;;;;;0.30;100.00;97873.56;5073778;28;20123;-78
2023/03/09 06:01:29;;;;;;;8.88;7.05;;;;;;;0.30;100.00;97875.31;5071564;28;20032;-79
2023/03/09 06:04:07;;;;;;;11.68;8.15;;;;;;;0.31;100.00;97871.75;5079697;28;20455;-79
2023/03/09 06:06:35;;;;;;;11.95;9.02;;;;;;;0.28;100.00;97874.63;5056071;28;20040;-77
2023/03/09 06:09:01;;;;;;;14.07;9.07;;;;;;;0.28;100.00;97870.25;5088053;28;20063;-78
2023/03/09 06:11:28;;;;;;;11.02;7.45;;;;;;;0.28;100.00;97859.88;5088941;28;20085;-79
2023/03/09 06:13:55;;;;;;;11.13;8.18;;;;;;;0.26;100.00;97866.16;5080863;28;20071;-79
2023/03/09 06:16:24;;;;;;;10.15;7.75;;;;;;;0.25;100.00;97862.75;5078737;28;20366;-77
2023/03/09 06:18:51;;;;;;;14.55;8.68;;;;;;;0.23;100.00;97865.50;5088565;28;20585;-77
2023/03/09 06:21:17;;;;;;;10.48;8.77;;;;;;;0.24;100.00;97861.94;5088771;28;20056;-77
2023/03/09 06:23:43;;;;;;;8.85;7.30;;;;;;;0.26;100.00;97859.19;5087103;28;20487;-77
2023/03/09 06:26:13;;;;;;;12.18;7.80;;;;;;;0.23;100.00;97851.69;5083073;28;20032;-78
2023/03/09 06:28:45;;;;;;;8.05;6.47;;;;;;;0.22;100.00;97850.84;5066934;28;20403;-78
2023/03/09 06:31:13;;;;;;;8.60;6.95;;;;;;;0.20;100.00;97845.00;5069990;28;20032;-78
2023/03/09 06:33:43;;;;;;;8.40;6.88;;;;;;;0.23;100.00;97854.28;5088234;28;20032;-77
2023/03/09 06:36:15;;;;;;;7.63;6.72;;;;;;;0.26;100.00;97856.59;5080092;28;20116;-76
2023/03/09 06:38:42;;;;;;;8.40;6.88;;;;;;;0.20;100.00;97850.19;5064051;28;20075;-78
2023/03/09 06:41:12;;;;;;;8.55;6.35;;;;;;;0.20;100.00;97858.00;5070888;28;20044;-78
2023/03/09 06:43:40;;;;;;;8.93;7.32;;;;;;;0.20;100.00;97849.38;5081544;28;20051;-77
2023/03/09 06:46:10;;;;;;;8.30;6.95;;;;;;;0.24;100.00;97851.53;5065587;28;20511;-77
2023/03/09 06:48:37;;;;;;;9.18;7.20;;;;;;;0.20;100.00;97845.00;5085933;28;20032;-78
2023/03/09 06:51:03;;;;;;;9.23;7.43;;;;;;;0.19;100.00;97843.34;5079664;28;20038;-79
2023/03/09 06:53:29;;;;;;;10.68;7.63;;;;;;;0.19;100.00;97843.34;5087244;28;20498;-78
2023/03/09 06:56:01;;;;;;;10.65;7.32;;;;;;;0.18;100.00;97843.47;5072695;28;20032;-79
2023/03/09 06:58:32;;;;;;;8.23;7.15;;;;;;;0.20;100.00;97845.00;5086588;28;20044;-79
2023/03/09 07:01:04;;;;;;;9.65;7.43;;;;;;;0.20;100.00;97844.16;5072225;28;20036;-78
2023/03/09 07:03:29;;;;;;;7.10;6.30;;;;;;;0.20;100.00;97841.56;5085885;28;20469;-78
2023/03/09 07:05:55;;;;;;;8.30;6.22;;;;;;;0.18;100.00;97838.28;5086274;28;20028;-79
2023/03/09 07:08:21;;;;;;;8.52;5.30;;;;;;;0.21;100.00;97846.63;5087278;28;20958;-78
2023/03/09 07:10:47;;;;;;;8.00;5.90;;;;;;;0.20;100.00;97844.16;5085690;28;20036;-78
2023/03/09 07:13:14;;;;;;;7.63;6.60;;;;;;;0.21;100.00;97845.78;5088756;28;20107;-79
2023/03/09 07:15:40;;;;;;;7.85;6.13;;;;;;;0.20;100.00;97846.78;5082081;28;20044;-79
2023/03/09 07:18:06;;;;;;;7.88;5.90;;;;;;;0.20;100.00;97849.38;5071362;28;20028;-79
2023/03/09 07:20:32;;;;;;;10.55;5.75;;;;;;;0.21;100.00;97845.78;5083506;28;20028;-78
2023/03/09 07:22:58;;;;;;;7.30;4.53;;;;;;;0.20;100.00;97847.59;5088375;28;20035;-77
2023/03/09 07:25:24;;;;;;;8.32;6.30;;;;;;;0.21;100.00;97840.59;5087838;28;20023;-77
2023/03/09 07:27:49;;;;;;;6.47;5.70;;;;;;;0.17;100.00;97841.84;5068843;28;20043;-79
2023/03/09 07:30:15;;;;;;;6.32;5.00;;;;;;;0.15;100.00;97834.22;5089275;28;20036;-78
2023/03/09 07:32:41;;;;;;;6.45;5.28;;;;;;;0.14;100.00;97829.16;5088411;28;20071;-79
2023/03/09 07:35:08;;;;;;;7.40;4.80;;;;;;;0.14;100.00;97831.75;5078996;28;20469;-79
2023/03/09 07:37:34;;;;;;;7.25;5.43;;;;;;;0.15;100.00;97830.78;5086483;28;20780;-77
2023/03/09 07:40:00;;;;;;;7.63;5.50;;;;;;;0.13;100.00;97835.31;5062909;28;20047;-77
2023/03/09 07:42:25;;;;;;;8.48;4.95;;;;;;;0.10;100.00;97824.25;5086153;28;20032;-79
2023/03/09 07:45:07;;;;;;;6.80;5.60;;;;;;;0.13;100.00;97824.94;5080176;28;20078;-78
2023/03/09 07:47:33;;;;;;;5.80;4.88;;;;;;;0.12;100.00;97821.50;5075637;28;20608;-79
2023/03/09 07:49:59;;;;;;;5.65;4.85;;;;;;;0.14;100.00;97817.00;5082049;28;20115;-79
2023/03/09 07:52:30;;;;;;;6.00;4.32;;;;;;;0.14;100.00;97821.38;5086420;28;20024;-79
2023/03/09 07:54:57;;;;;;;5.50;3.78;;;;;;;0.13;100.00;97822.34;5074797;28;20499;-79
2023/03/09 07:57:23;;;;;;;9.77;4.88;;;;;;;0.09;100.00;97819.19;5072672;28;20032;-79
2023/03/09 07:59:55;;;;;;;5.38;4.72;;;;;;;0.12;100.00;97813.72;5075350;28;20039;-79
2023/03/09 08:02:22;;;;;;;5.38;4.20;;;;;;;0.11;100.00;97815.47;5072177;28;20089;-79
2023/03/09 08:04:47;;;;;;;4.20;3.47;;;;;;;0.08;100.00;97810.56;5093154;28;20032;-79
2023/03/09 08:07:14;;;;;;;7.18;5.22;;;;;;;0.06;100.00;97809.09;5073166;28;20055;-75
2023/03/09 08:09:40;;;;;;;5.10;3.85;;;;;;;0.07;100.00;97818.50;5090700;28;20043;-75
2023/03/09 08:12:06;;;;;;;8.15;5.07;;;;;;;0.06;100.00;97815.13;5082333;28;20101;-77
2023/03/09 08:14:31;;;;;;;5.78;4.28;;;;;;;0.06;100.00;97815.13;5088330;28;20120;-77
2023/03/09 08:16:57;;;;;;;6.70;4.32;;;;;;;0.07;100.00;97814.13;5094567;28;20111;-77
2023/03/09 08:19:23;;;;;;;2.80;2.55;;;;;;;0.08;100.00;97807.97;5092603;28;20036;-77
2023/03/09 08:21:49;;;;;;;6.80;3.92;;;;;;;0.04;100.00;97800.63;5091109;28;20106;-77
2023/03/09 08:24:15;;;;;;;6.88;3.70;;;;;;;0.06;100.00;97803.91;5088443;28;20060;-77
2023/03/09 08:26:42;;;;;;;3.63;2.72;;;;;;;0.07;100.00;97803.75;5093345;28;20028;-77
2023/03/09 08:29:09;;;;;;;3.90;2.20;;;;;;;0.08;100.00;97805.38;5091767;28;20040;-77
2023/03/09 08:31:35;;;;;;;4.85;3.55;;;;;;;0.07;100.00;97798.56;5075023;28;20547;-77
2023/03/09 08:34:03;;;;;;;7.65;3.38;;;;;;;0.09;100.00;97804.44;5092692;28;20031;-77
2023/03/09 08:36:29;;;;;;;2.97;2.33;;;;;;;0.07;100.00;97806.34;5078040;28;20115;-77
2023/03/09 08:38:55;;;;;;;5.13;3.38;;;;;;;0.06;100.00;97799.53;5095148;28;20092;-77
2023/03/09 08:41:21;;;;;;;4.13;3.47;;;;;;;0.08;100.00;97791.59;5085949;28;20029;-77
2023/03/09 08:43:48;;;;;;;3.80;3.38;;;;;;;0.08;100.00;97784.59;5093790;28;20039;-77
2023/03/09 08:46:14;;;;;;;4.63;3.88;;;;;;;0.11;100.00;97794.69;5091360;28;20926;-76
2023/03/09 08:48:39;;;;;;;8.52;4.35;;;;;;;0.08;100.00;97778.59;5077593;28;20040;-75
2023/03/09 08:51:07;;;;;;;6.35;3.97;;;;;;;0.13;100.00;97788.56;5090776;28;20395;-75
2023/03/09 08:53:34;;;;;;;4.68;3.40;;;;;;;0.12;100.00;97782.53;5059397;28;20428;-75
2023/03/09 08:56:08;;;;;;;6.85;3.42;;;;;;;0.15;100.00;97779.66;5091916;28;20035;-75
2023/03/09 08:58:35;;;;;;;4.90;3.47;;;;;;;0.11;100.00;97778.31;5088782;28;20387;-78
2023/03/09 09:01:02;;;;;;;6.32;4.57;;;;;;;0.13;100.00;97773.78;5093420;28;20039;-78
2023/03/09 09:03:28;;;;;;;4.95;3.88;;;;;;;0.14;100.00;97770.25;5092336;28;20052;-78
2023/03/09 09:05:55;;;;;;;4.93;3.42;;;;;;;0.19;100.00;97765.41;5095686;28;20035;-78
2023/03/09 09:08:20;;;;;;;4.82;3.35;;;;;;;0.17;100.00;97762.16;5086876;28;20071;-75
2023/03/09 09:10:46;;;;;;;6.95;4.63;;;;;;;0.17;100.00;97754.38;5087745;28;20039;-75
2023/03/09 09:13:12;;;;;;;3.90;3.03;;;;;;;0.17;100.00;97751.75;5089070;28;20051;-78
2023/03/09 09:15:40;;;;;;;3.42;3.10;;;;;;;0.15;100.00;97751.09;5089782;28;20032;-79
2023/03/09 09:18:06;;;;;;;3.40;3.10;;;;;;;0.20;100.00;97758.44;5076093;28;20388;-78
2023/03/09 09:20:32;;;;;;;3.88;2.40;;;;;;;0.17;100.00;97751.75;5088672;28;20035;-78
2023/03/09 09:22:58;;;;;;;4.40;3.58;;;;;;;0.17;100.00;97753.53;5089560;28;20086;-78
2023/03/09 09:25:24;;;;;;;2.88;2.53;;;;;;;0.09;100.00;97749.06;5088094;28;20032;-78
2023/03/09 09:27:50;;;;;;;4.95;3.08;;;;;;;0.15;100.00;97745.88;5089830;28;20040;-75
2023/03/09 09:30:20;;;;;;;4.80;3.50;;;;;;;0.18;100.00;97740.41;5090625;28;20020;-75
2023/03/09 09:32:45;;;;;;;4.07;2.58;;;;;;;0.22;100.00;97733.16;5088762;28;20036;-78
2023/03/09 09:35:11;;;;;;;3.80;2.85;;;;;;;0.23;100.00;97726.97;5092399;28;20038;-78
2023/03/09 09:37:41;;;;;;;8.32;2.60;;;;;;;0.22;100.00;97723.56;5096804;28;20043;-75
2023/03/09 09:40:11;;;;;;;2.85;2.58;;;;;;;0.26;100.00;97720.66;5073264;28;20031;-75
2023/03/09 09:42:40;;;;;;;2.88;2.60;;;;;;;0.25;100.00;97730.25;5089915;28;20040;-75
2023/03/09 09:45:23;;;;;;;3.33;2.55;;;;;;;0.27;100.00;97722.31;5091775;28;20051;-75
2023/03/09 09:47:49;;;;;;;3.75;3.13;;;;;;;0.23;100.00;97712.22;5072056;28;20472;-78
2023/03/09 09:50:16;;;;;;;4.50;3.47;;;;;;;0.24;100.00;97710.41;5086009;28;20126;-77
2023/03/09 09:53:12;;;;;;;2.78;2.05;;;;;;;0.30;100.00;97702.06;5086487;28;20395;-77
2023/03/09 09:55:41;;;;;;;3.67;2.63;;;;;;;0.31;100.00;97701.09;5074167;28;20420;-77
2023/03/09 09:58:19;;;;;;;1.95;1.77;;;;;;;0.27;100.00;97699.72;5063673;28;20093;-77
2023/03/09 10:00:49;;;;;;;2.53;1.92;;;;;;;0.33;100.00;97691.38;5089284;28;20034;-79
2023/03/09 10:03:26;;;;;;;2.85;2.05;;;;;;;0.34;100.00;97693.00;5059180;28;20056;-79
2023/03/09 10:05:58;;;;;;;2.58;2.30;;;;;;;0.39;100.00;97679.56;5090620;28;20077;-77
2023/03/09 10:08:29;;;;;;;2.40;2.10;;;;;;;0.48;100.00;97685.63;5081610;28;20052;-77
2023/03/09 10:11:06;;;;;;;3.40;1.75;;;;;;;0.51;100.00;97684.53;5088437;28;20101;-76
2023/03/09 10:13:41;;;;;;;2.55;1.65;;;;;;;0.52;100.00;97684.41;5086816;28;20093;-77
2023/03/09 10:16:15;;;;;;;3.10;2.30;;;;;;;0.52;100.00;97673.19;5084386;28;20426;-77
2023/03/09 10:18:47;;;;;;;3.60;2.28;;;;;;;0.54;100.00;97668.66;5088788;28;20032;-77
2023/03/09 10:21:18;;;;;;;3.17;2.10;;;;;;;0.55;100.00;97662.47;5069708;28;20563;-76
2023/03/09 10:23:46;;;;;;;8.23;2.33;;;;;;;0.55;100.00;97660.72;5066454;28;20594;-77
2023/03/09 10:26:31;;;;;;;1.88;1.48;;;;;;;0.47;100.00;97652.84;5085034;28;20036;-77
2023/03/09 10:29:03;;;;;;;1.38;1.17;;;;;;;0.47;100.00;97658.84;5089271;28;20032;-77
2023/03/09 10:31:42;;;;;;;2.55;2.30;;;;;;;0.53;100.00;97652.22;5086866;28;20392;-77
2023/03/09 10:34:14;;;;;;;2.35;2.05;;;;;;;0.57;100.00;97665.75;5087530;28;20473;-76
2023/03/09 10:37:01;;;;;;;4.07;2.35;;;;;;;0.59;100.00;97646.44;5089757;28;20040;-77
2023/03/09 10:39:34;;;;;;;2.03;1.85;;;;;;;0.57;100.00;97648.38;5087539;28;20361;-77
2023/03/09 10:42:21;;;;;;;4.10;2.78;;;;;;;0.58;100.00;97641.38;5092161;28;20123;-76
2023/03/09 10:44:59;;;;;;;3.40;2.53;;;;;;;0.57;100.00;97640.59;5085664;28;20392;-76
2023/03/09 10:47:25;;;;;;;4.93;3.10;;;;;;;0.61;100.00;97641.91;5086697;28;20036;-77
2023/03/09 10:50:12;;;;;;;4.32;3.30;;;;;;;0.63;100.00;97640.94;5079386;28;20519;-77
2023/03/09 10:52:38;;;;;;;5.35;3.28;;;;;;;0.59;100.00;97633.44;5089756;28;20600;-76
2023/03/09 10:55:25;;;;;;;3.72;2.03;;;;;;;0.59;100.00;97636.03;5072707;28;20986;-76
2023/03/09 10:57:56;;;;;;;5.30;3.28;;;;;;;0.60;100.00;97637.69;5070400;28;20396;-76
2023/03/09 11:00:22;;;;;;;4.55;3.03;;;;;;;0.62;100.00;97640.13;5053714;28;20097;-76
2023/03/09 11:03:02;;;;;;;7.90;3.92;;;;;;;0.70;100.00;97629.78;5089276;28;20033;-79
2023/03/09 11:05:30;;;;;;;5.47;3.45;;;;;;;0.70;100.00;97621.97;5082532;28;20123;-79
2023/03/09 11:07:59;;;;;;;3.67;3.28;;;;;;;0.64;100.00;97627.00;5090202;28;20027;-78
2023/03/09 11:10:27;;;;;;;4.25;3.60;;;;;;;0.66;100.00;97623.25;5095057;28;20027;-79
2023/03/09 11:12:53;;;;;;;4.13;2.95;;;;;;;0.68;100.00;97615.31;5090592;28;20730;-78
2023/03/09 11:15:25;;;;;;;5.20;3.30;;;;;;;0.70;100.00;97603.00;5077554;28;20043;-79
2023/03/09 11:17:51;;;;;;;5.63;3.63;;;;;;;0.77;100.00;97598.81;5080480;28;20050;-78
2023/03/09 11:20:18;;;;;;;2.25;2.03;;;;;;;0.82;100.00;97599.16;5083160;28;20105;-79
2023/03/09 11:23:13;;;;;;;3.67;2.88;;;;;;;0.83;100.00;97598.19;5087983;28;20044;-78
2023/03/09 11:26:05;;;;;;;6.47;3.95;;;;;;;0.82;100.00;97595.75;5089725;28;20044;-78
2023/03/09 11:28:57;;;;;;;5.20;3.38;;;;;;;0.94;100.00;97593.72;5080689;28;20036;-79
2023/03/09 11:31:30;;;;;;;5.63;3.63;;;;;;;0.92;100.00;97600.84;5091944;28;20031;-78
2023/03/09 11:33:57;;;;;;;2.78;2.20;;;;;;;0.91;100.00;97591.44;5080532;28;20040;-78